Aviation Digital Data Service (ADDS)

Output produced by METARs form (1804 UTC 19 October 2017)
found at http://www.aviationweather.gov/adds/metars/
 
HUEN 191700Z 29006KT 9999 BKN018 FEW020CB BKN120 23/20 Q1018
TAF HUEN 191700Z 1918/2024 29006KT 9999 BKN018 FEW020CB BKN120 
     BECMG 1921/1924 35007KT 9000 SCT018 FEW020CB SCT110 
     TEMPO 2001/2006 VRB12KT 8000 -TSRA BKN017 FEW019CB BKN100 
     BECMG 2007/2012 17010KT 9000 -TS SCT022 FEW024CB SCT160 
     FM201700 23006KT 9999 FEW021 FEW023CB BKN130 
     BECMG 2021/2024 35006KT FEW019 FEW021CB SCT110
       
TAF HUSO 191600Z 1918/2018 35004KT 9000 -TSRA BKN019 FEW021CB OVC110 
     BECMG 2001/2006 03002KT 9999 SCT018 BKN100 
     BECMG 2009/2014 VRB06 0+CMTI: SM,2
       
HUEN 191700Z 29006KT 9999 BKN018 FEW020CB BKN120 23/20 Q1018
TAF HUEN 191700Z 1918/2024 29006KT 9999 BKN018 FEW020CB BKN120 
     BECMG 1921/1924 35007KT 9000 SCT018 FEW020CB SCT110 
     TEMPO 2001/2006 VRB12KT 8000 -TSRA BKN017 FEW019CB BKN100 
     BECMG 2007/2012 17010KT 9000 -TS SCT022 FEW024CB SCT160 
     FM201700 23006KT 9999 FEW021 FEW023CB BKN130 
     BECMG 2021/2024 35006KT FEW019 FEW021CB SCT110
       
TAF HUSO 191600Z 1918/2018 35004KT 9000 -TSRA BKN019 FEW021CB OVC110 
     BECMG 2001/2006 03002KT 9999 SCT018 BKN100 
     BECMG 2009/2014 VRB06 0+CMTI: SM,2